sensor_id;sensor_type;location;lat;lon;timestamp;P1;durP1;ratioP1;P2;durP2;ratioP2
8652;SDS011;4364;52.426;9.424;2023-06-10T00:02:01;10.60;;;6.80;;
8652;SDS011;4364;52.426;9.424;2023-06-10T00:04:27;7.83;;;5.73;;
8652;SDS011;4364;52.426;9.424;2023-06-10T00:06:54;8.50;;;5.30;;
8652;SDS011;4364;52.426;9.424;2023-06-10T00:09:21;7.17;;;5.33;;
8652;SDS011;4364;52.426;9.424;2023-06-10T00:11:49;7.33;;;5.53;;
8652;SDS011;4364;52.426;9.424;2023-06-10T00:14:16;6.73;;;5.30;;
8652;SDS011;4364;52.426;9.424;2023-06-10T00:16:42;6.50;;;5.30;;
8652;SDS011;4364;52.426;9.424;2023-06-10T00:19:11;8.87;;;5.80;;
8652;SDS011;4364;52.426;9.424;2023-06-10T00:21:40;7.60;;;5.07;;
8652;SDS011;4364;52.426;9.424;2023-06-10T00:24:07;6.63;;;5.33;;
8652;SDS011;4364;52.426;9.424;2023-06-10T00:26:39;7.03;;;5.00;;
8652;SDS011;4364;52.426;9.424;2023-06-10T00:29:06;9.30;;;5.50;;
8652;SDS011;4364;52.426;9.424;2023-06-10T00:31:34;6.57;;;5.60;;
8652;SDS011;4364;52.426;9.424;2023-06-10T00:34:01;7.80;;;5.20;;
8652;SDS011;4364;52.426;9.424;2023-06-10T00:36:30;10.67;;;5.73;;
8652;SDS011;4364;52.426;9.424;2023-06-10T00:38:57;8.43;;;5.10;;
8652;SDS011;4364;52.426;9.424;2023-06-10T00:41:24;8.00;;;5.40;;
8652;SDS011;4364;52.426;9.424;2023-06-10T00:43:52;8.20;;;5.33;;
8652;SDS011;4364;52.426;9.424;2023-06-10T00:46:19;7.43;;;5.20;;
8652;SDS011;4364;52.426;9.424;2023-06-10T00:48:47;7.47;;;5.23;;
8652;SDS011;4364;52.426;9.424;2023-06-10T00:51:15;8.07;;;5.30;;
8652;SDS011;4364;52.426;9.424;2023-06-10T00:53:42;7.27;;;5.33;;
8652;SDS011;4364;52.426;9.424;2023-06-10T00:56:10;7.93;;;5.00;;
8652;SDS011;4364;52.426;9.424;2023-06-10T00:58:36;7.23;;;5.50;;
8652;SDS011;4364;52.426;9.424;2023-06-10T01:01:04;6.90;;;5.10;;
8652;SDS011;4364;52.426;9.424;2023-06-10T01:03:30;6.83;;;5.00;;
8652;SDS011;4364;52.426;9.424;2023-06-10T01:06:00;6.80;;;4.93;;
8652;SDS011;4364;52.426;9.424;2023-06-10T01:08:41;8.13;;;5.00;;
8652;SDS011;4364;52.426;9.424;2023-06-10T01:11:41;7.93;;;5.70;;
8652;SDS011;4364;52.426;9.424;2023-06-10T01:14:09;8.87;;;5.00;;
8652;SDS011;4364;52.426;9.424;2023-06-10T01:16:37;5.83;;;4.53;;
8652;SDS011;4364;52.426;9.424;2023-06-10T01:19:08;8.53;;;5.20;;
8652;SDS011;4364;52.426;9.424;2023-06-10T01:21:37;10.07;;;5.40;;
8652;SDS011;4364;52.426;9.424;2023-06-10T01:24:05;6.37;;;4.70;;
8652;SDS011;4364;52.426;9.424;2023-06-10T01:26:34;6.73;;;5.60;;
8652;SDS011;4364;52.426;9.424;2023-06-10T01:29:17;7.17;;;5.57;;
8652;SDS011;4364;52.426;9.424;2023-06-10T01:31:51;6.83;;;5.17;;
8652;SDS011;4364;52.426;9.424;2023-06-10T01:34:32;7.37;;;4.73;;
8652;SDS011;4364;52.426;9.424;2023-06-10T01:37:01;5.70;;;4.83;;
8652;SDS011;4364;52.426;9.424;2023-06-10T01:39:30;6.83;;;4.80;;
8652;SDS011;4364;52.426;9.424;2023-06-10T01:41:58;7.83;;;5.27;;
8652;SDS011;4364;52.426;9.424;2023-06-10T01:44:26;9.23;;;5.00;;
8652;SDS011;4364;52.426;9.424;2023-06-10T01:46:52;7.30;;;4.73;;
8652;SDS011;4364;52.426;9.424;2023-06-10T01:49:19;8.57;;;4.70;;
8652;SDS011;4364;52.426;9.424;2023-06-10T01:51:46;8.67;;;4.90;;
8652;SDS011;4364;52.426;9.424;2023-06-10T01:54:12;8.27;;;4.73;;
8652;SDS011;4364;52.426;9.424;2023-06-10T01:56:39;7.23;;;4.97;;
8652;SDS011;4364;52.426;9.424;2023-06-10T01:59:05;8.50;;;5.30;;
8652;SDS011;4364;52.426;9.424;2023-06-10T02:01:32;8.30;;;5.30;;
8652;SDS011;4364;52.426;9.424;2023-06-10T02:03:59;8.07;;;4.97;;
8652;SDS011;4364;52.426;9.424;2023-06-10T02:06:26;7.83;;;4.87;;
8652;SDS011;4364;52.426;9.424;2023-06-10T02:08:53;9.30;;;5.40;;
8652;SDS011;4364;52.426;9.424;2023-06-10T02:11:19;7.30;;;5.17;;
8652;SDS011;4364;52.426;9.424;2023-06-10T02:13:46;10.93;;;5.20;;
8652;SDS011;4364;52.426;9.424;2023-06-10T02:16:13;8.10;;;5.37;;
8652;SDS011;4364;52.426;9.424;2023-06-10T02:18:41;7.40;;;5.27;;
8652;SDS011;4364;52.426;9.424;2023-06-10T02:21:09;9.40;;;5.73;;
8652;SDS011;4364;52.426;9.424;2023-06-10T02:23:36;10.53;;;5.70;;
8652;SDS011;4364;52.426;9.424;2023-06-10T02:26:03;6.93;;;5.20;;
8652;SDS011;4364;52.426;9.424;2023-06-10T02:28:29;10.13;;;5.53;;
8652;SDS011;4364;52.426;9.424;2023-06-10T02:30:57;10.37;;;5.50;;
8652;SDS011;4364;52.426;9.424;2023-06-10T02:33:26;8.77;;;5.60;;
8652;SDS011;4364;52.426;9.424;2023-06-10T02:35:53;10.53;;;6.17;;
8652;SDS011;4364;52.426;9.424;2023-06-10T02:38:21;11.20;;;5.77;;
8652;SDS011;4364;52.426;9.424;2023-06-10T02:40:47;7.27;;;5.13;;
8652;SDS011;4364;52.426;9.424;2023-06-10T02:43:14;7.13;;;4.87;;
8652;SDS011;4364;52.426;9.424;2023-06-10T02:45:41;9.03;;;5.60;;
8652;SDS011;4364;52.426;9.424;2023-06-10T02:48:09;9.43;;;5.30;;
8652;SDS011;4364;52.426;9.424;2023-06-10T02:50:36;9.20;;;5.40;;
8652;SDS011;4364;52.426;9.424;2023-06-10T02:53:16;8.07;;;5.20;;
8652;SDS011;4364;52.426;9.424;2023-06-10T02:55:47;10.60;;;5.60;;
8652;SDS011;4364;52.426;9.424;2023-06-10T02:58:17;7.47;;;5.10;;
8652;SDS011;4364;52.426;9.424;2023-06-10T03:00:43;8.77;;;6.03;;
8652;SDS011;4364;52.426;9.424;2023-06-10T03:03:12;10.73;;;5.87;;
8652;SDS011;4364;52.426;9.424;2023-06-10T03:05:48;10.80;;;5.70;;
8652;SDS011;4364;52.426;9.424;2023-06-10T03:08:17;8.43;;;5.70;;
8652;SDS011;4364;52.426;9.424;2023-06-10T03:10:44;9.93;;;5.80;;
8652;SDS011;4364;52.426;9.424;2023-06-10T03:13:14;10.37;;;6.00;;
8652;SDS011;4364;52.426;9.424;2023-06-10T03:15:41;9.13;;;5.77;;
8652;SDS011;4364;52.426;9.424;2023-06-10T03:18:12;9.77;;;6.30;;
8652;SDS011;4364;52.426;9.424;2023-06-10T03:20:39;9.03;;;6.00;;
8652;SDS011;4364;52.426;9.424;2023-06-10T03:23:08;9.00;;;5.50;;
8652;SDS011;4364;52.426;9.424;2023-06-10T03:25:35;11.57;;;5.57;;
8652;SDS011;4364;52.426;9.424;2023-06-10T03:28:02;10.60;;;5.80;;
8652;SDS011;4364;52.426;9.424;2023-06-10T03:30:29;8.60;;;5.47;;
8652;SDS011;4364;52.426;9.424;2023-06-10T03:32:56;11.17;;;5.60;;
8652;SDS011;4364;52.426;9.424;2023-06-10T03:35:26;9.50;;;5.73;;
8652;SDS011;4364;52.426;9.424;2023-06-10T03:37:53;9.97;;;6.23;;
8652;SDS011;4364;52.426;9.424;2023-06-10T03:40:19;12.13;;;6.17;;
8652;SDS011;4364;52.426;9.424;2023-06-10T03:42:47;12.77;;;6.17;;
8652;SDS011;4364;52.426;9.424;2023-06-10T03:45:15;8.93;;;6.27;;
8652;SDS011;4364;52.426;9.424;2023-06-10T03:47:44;10.40;;;6.37;;
8652;SDS011;4364;52.426;9.424;2023-06-10T03:50:13;11.63;;;6.20;;
8652;SDS011;4364;52.426;9.424;2023-06-10T03:52:42;11.43;;;6.47;;
8652;SDS011;4364;52.426;9.424;2023-06-10T03:55:10;9.90;;;6.70;;
8652;SDS011;4364;52.426;9.424;2023-06-10T03:57:40;12.60;;;6.50;;
8652;SDS011;4364;52.426;9.424;2023-06-10T04:00:06;10.70;;;6.90;;
8652;SDS011;4364;52.426;9.424;2023-06-10T04:02:41;11.10;;;6.60;;
8652;SDS011;4364;52.426;9.424;2023-06-10T04:05:18;8.27;;;6.43;;
8652;SDS011;4364;52.426;9.424;2023-06-10T04:07:51;10.53;;;6.90;;
8652;SDS011;4364;52.426;9.424;2023-06-10T04:10:17;11.07;;;6.90;;
8652;SDS011;4364;52.426;9.424;2023-06-10T04:12:44;9.40;;;6.57;;
8652;SDS011;4364;52.426;9.424;2023-06-10T04:15:10;10.87;;;7.17;;
8652;SDS011;4364;52.426;9.424;2023-06-10T04:17:38;12.13;;;6.93;;
8652;SDS011;4364;52.426;9.424;2023-06-10T04:20:05;12.63;;;7.00;;
8652;SDS011;4364;52.426;9.424;2023-06-10T04:22:35;11.03;;;6.63;;
8652;SDS011;4364;52.426;9.424;2023-06-10T04:25:03;11.97;;;6.80;;
8652;SDS011;4364;52.426;9.424;2023-06-10T04:27:30;10.23;;;6.67;;
8652;SDS011;4364;52.426;9.424;2023-06-10T04:29:57;10.10;;;6.90;;
8652;SDS011;4364;52.426;9.424;2023-06-10T04:32:23;12.03;;;7.40;;
8652;SDS011;4364;52.426;9.424;2023-06-10T04:34:50;12.43;;;7.80;;
8652;SDS011;4364;52.426;9.424;2023-06-10T04:37:18;12.43;;;7.43;;
8652;SDS011;4364;52.426;9.424;2023-06-10T04:39:44;10.87;;;6.70;;
8652;SDS011;4364;52.426;9.424;2023-06-10T04:42:11;12.00;;;7.20;;
8652;SDS011;4364;52.426;9.424;2023-06-10T04:44:39;12.23;;;7.50;;
8652;SDS011;4364;52.426;9.424;2023-06-10T04:47:07;10.73;;;7.60;;
8652;SDS011;4364;52.426;9.424;2023-06-10T04:49:34;14.00;;;7.67;;
8652;SDS011;4364;52.426;9.424;2023-06-10T04:52:02;12.33;;;8.33;;
8652;SDS011;4364;52.426;9.424;2023-06-10T04:54:34;13.53;;;7.73;;
8652;SDS011;4364;52.426;9.424;2023-06-10T04:57:01;12.20;;;8.47;;
8652;SDS011;4364;52.426;9.424;2023-06-10T04:59:27;16.27;;;8.77;;
8652;SDS011;4364;52.426;9.424;2023-06-10T05:01:54;15.63;;;8.70;;
8652;SDS011;4364;52.426;9.424;2023-06-10T05:04:21;12.73;;;8.33;;
8652;SDS011;4364;52.426;9.424;2023-06-10T05:06:48;11.90;;;8.13;;
8652;SDS011;4364;52.426;9.424;2023-06-10T05:09:16;15.03;;;8.80;;
8652;SDS011;4364;52.426;9.424;2023-06-10T05:11:42;13.70;;;8.47;;
8652;SDS011;4364;52.426;9.424;2023-06-10T05:14:09;14.37;;;8.87;;
8652;SDS011;4364;52.426;9.424;2023-06-10T05:16:35;11.43;;;8.73;;
8652;SDS011;4364;52.426;9.424;2023-06-10T05:19:02;14.97;;;9.17;;
8652;SDS011;4364;52.426;9.424;2023-06-10T05:21:33;14.90;;;9.10;;
8652;SDS011;4364;52.426;9.424;2023-06-10T05:24:00;14.80;;;10.70;;
8652;SDS011;4364;52.426;9.424;2023-06-10T05:26:28;15.30;;;9.80;;
8652;SDS011;4364;52.426;9.424;2023-06-10T05:28:57;14.13;;;9.60;;
8652;SDS011;4364;52.426;9.424;2023-06-10T05:31:26;17.53;;;11.13;;
8652;SDS011;4364;52.426;9.424;2023-06-10T05:33:52;15.40;;;9.47;;
8652;SDS011;4364;52.426;9.424;2023-06-10T05:36:19;15.67;;;10.33;;
8652;SDS011;4364;52.426;9.424;2023-06-10T05:38:46;17.03;;;10.37;;
8652;SDS011;4364;52.426;9.424;2023-06-10T05:41:12;15.33;;;9.53;;
8652;SDS011;4364;52.426;9.424;2023-06-10T05:43:39;16.57;;;10.90;;
8652;SDS011;4364;52.426;9.424;2023-06-10T05:46:06;16.77;;;12.10;;
8652;SDS011;4364;52.426;9.424;2023-06-10T05:48:32;16.07;;;11.73;;
8652;SDS011;4364;52.426;9.424;2023-06-10T05:50:59;16.30;;;11.70;;
8652;SDS011;4364;52.426;9.424;2023-06-10T05:53:27;21.37;;;13.03;;
8652;SDS011;4364;52.426;9.424;2023-06-10T05:55:53;17.37;;;11.67;;
8652;SDS011;4364;52.426;9.424;2023-06-10T05:58:23;16.50;;;11.50;;
8652;SDS011;4364;52.426;9.424;2023-06-10T06:00:50;17.53;;;11.57;;
8652;SDS011;4364;52.426;9.424;2023-06-10T06:03:18;16.00;;;10.33;;
8652;SDS011;4364;52.426;9.424;2023-06-10T06:05:45;15.93;;;10.90;;
8652;SDS011;4364;52.426;9.424;2023-06-10T06:08:12;13.90;;;8.47;;
8652;SDS011;4364;52.426;9.424;2023-06-10T06:10:39;13.90;;;8.73;;
8652;SDS011;4364;52.426;9.424;2023-06-10T06:13:06;14.93;;;8.67;;
8652;SDS011;4364;52.426;9.424;2023-06-10T06:15:32;14.60;;;9.13;;
8652;SDS011;4364;52.426;9.424;2023-06-10T06:17:59;14.30;;;8.50;;
8652;SDS011;4364;52.426;9.424;2023-06-10T06:20:27;13.70;;;8.83;;
8652;SDS011;4364;52.426;9.424;2023-06-10T06:22:54;13.10;;;8.53;;
8652;SDS011;4364;52.426;9.424;2023-06-10T06:25:20;13.37;;;8.33;;
8652;SDS011;4364;52.426;9.424;2023-06-10T06:27:47;16.57;;;8.97;;
8652;SDS011;4364;52.426;9.424;2023-06-10T06:30:13;13.53;;;8.10;;
8652;SDS011;4364;52.426;9.424;2023-06-10T06:32:40;15.60;;;9.13;;
8652;SDS011;4364;52.426;9.424;2023-06-10T06:35:06;14.20;;;8.50;;
8652;SDS011;4364;52.426;9.424;2023-06-10T06:37:35;14.20;;;8.93;;
8652;SDS011;4364;52.426;9.424;2023-06-10T06:40:16;11.80;;;8.80;;
8652;SDS011;4364;52.426;9.424;2023-06-10T06:42:43;14.83;;;8.80;;
8652;SDS011;4364;52.426;9.424;2023-06-10T06:45:36;13.57;;;8.37;;
8652;SDS011;4364;52.426;9.424;2023-06-10T06:48:03;13.47;;;8.97;;
8652;SDS011;4364;52.426;9.424;2023-06-10T06:50:31;14.40;;;8.60;;
8652;SDS011;4364;52.426;9.424;2023-06-10T06:52:58;13.67;;;8.33;;
8652;SDS011;4364;52.426;9.424;2023-06-10T06:55:24;13.47;;;7.87;;
8652;SDS011;4364;52.426;9.424;2023-06-10T06:57:51;10.83;;;7.60;;
8652;SDS011;4364;52.426;9.424;2023-06-10T07:00:17;11.13;;;8.00;;
8652;SDS011;4364;52.426;9.424;2023-06-10T07:02:44;10.53;;;7.33;;
8652;SDS011;4364;52.426;9.424;2023-06-10T07:05:11;12.97;;;7.67;;
8652;SDS011;4364;52.426;9.424;2023-06-10T07:07:38;15.03;;;7.23;;
8652;SDS011;4364;52.426;9.424;2023-06-10T07:10:04;15.93;;;8.10;;
8652;SDS011;4364;52.426;9.424;2023-06-10T07:12:31;12.67;;;7.10;;
8652;SDS011;4364;52.426;9.424;2023-06-10T07:14:58;12.07;;;7.40;;
8652;SDS011;4364;52.426;9.424;2023-06-10T07:17:25;13.50;;;7.47;;
8652;SDS011;4364;52.426;9.424;2023-06-10T07:19:53;13.33;;;7.83;;
8652;SDS011;4364;52.426;9.424;2023-06-10T07:22:19;10.63;;;7.30;;
8652;SDS011;4364;52.426;9.424;2023-06-10T07:24:46;11.50;;;7.10;;
8652;SDS011;4364;52.426;9.424;2023-06-10T07:27:13;12.60;;;7.23;;
8652;SDS011;4364;52.426;9.424;2023-06-10T07:29:39;10.80;;;6.90;;
8652;SDS011;4364;52.426;9.424;2023-06-10T07:32:06;10.63;;;6.93;;
8652;SDS011;4364;52.426;9.424;2023-06-10T07:34:32;10.60;;;7.07;;
8652;SDS011;4364;52.426;9.424;2023-06-10T07:36:59;11.73;;;7.00;;
8652;SDS011;4364;52.426;9.424;2023-06-10T07:39:28;12.70;;;6.93;;
8652;SDS011;4364;52.426;9.424;2023-06-10T07:41:55;11.83;;;6.97;;
8652;SDS011;4364;52.426;9.424;2023-06-10T07:44:25;11.57;;;6.53;;
8652;SDS011;4364;52.426;9.424;2023-06-10T07:46:51;9.37;;;6.40;;
8652;SDS011;4364;52.426;9.424;2023-06-10T07:49:18;10.93;;;7.17;;
8652;SDS011;4364;52.426;9.424;2023-06-10T07:51:45;10.43;;;6.70;;
8652;SDS011;4364;52.426;9.424;2023-06-10T07:54:12;10.43;;;6.43;;
8652;SDS011;4364;52.426;9.424;2023-06-10T07:56:38;11.23;;;6.57;;
8652;SDS011;4364;52.426;9.424;2023-06-10T07:59:06;12.17;;;7.07;;
8652;SDS011;4364;52.426;9.424;2023-06-10T08:01:33;10.17;;;7.20;;
8652;SDS011;4364;52.426;9.424;2023-06-10T08:03:59;10.80;;;6.87;;
8652;SDS011;4364;52.426;9.424;2023-06-10T08:06:28;11.03;;;7.20;;
8652;SDS011;4364;52.426;9.424;2023-06-10T08:08:54;10.93;;;6.13;;
8652;SDS011;4364;52.426;9.424;2023-06-10T08:11:20;9.23;;;6.50;;
8652;SDS011;4364;52.426;9.424;2023-06-10T08:13:47;11.37;;;6.57;;
8652;SDS011;4364;52.426;9.424;2023-06-10T08:16:14;10.67;;;6.50;;
8652;SDS011;4364;52.426;9.424;2023-06-10T08:18:40;8.97;;;7.30;;
8652;SDS011;4364;52.426;9.424;2023-06-10T08:21:07;8.50;;;6.57;;
8652;SDS011;4364;52.426;9.424;2023-06-10T08:23:33;8.17;;;6.17;;
8652;SDS011;4364;52.426;9.424;2023-06-10T08:26:00;9.67;;;6.60;;
8652;SDS011;4364;52.426;9.424;2023-06-10T08:28:27;10.77;;;7.00;;
8652;SDS011;4364;52.426;9.424;2023-06-10T08:30:54;10.43;;;6.77;;
8652;SDS011;4364;52.426;9.424;2023-06-10T08:33:22;9.20;;;7.07;;
8652;SDS011;4364;52.426;9.424;2023-06-10T08:35:49;10.17;;;6.70;;
8652;SDS011;4364;52.426;9.424;2023-06-10T08:38:15;9.67;;;7.60;;
8652;SDS011;4364;52.426;9.424;2023-06-10T08:40:42;12.00;;;7.13;;
8652;SDS011;4364;52.426;9.424;2023-06-10T08:43:17;10.77;;;6.60;;
8652;SDS011;4364;52.426;9.424;2023-06-10T08:45:52;8.77;;;6.03;;
8652;SDS011;4364;52.426;9.424;2023-06-10T08:48:23;9.17;;;7.23;;
8652;SDS011;4364;52.426;9.424;2023-06-10T08:50:54;13.07;;;7.07;;
8652;SDS011;4364;52.426;9.424;2023-06-10T08:53:23;8.90;;;6.20;;
8652;SDS011;4364;52.426;9.424;2023-06-10T08:55:50;10.73;;;7.10;;
8652;SDS011;4364;52.426;9.424;2023-06-10T08:58:20;9.87;;;5.93;;
8652;SDS011;4364;52.426;9.424;2023-06-10T09:00:47;8.23;;;6.40;;
8652;SDS011;4364;52.426;9.424;2023-06-10T09:03:13;7.13;;;5.87;;
8652;SDS011;4364;52.426;9.424;2023-06-10T09:05:40;8.93;;;6.17;;
8652;SDS011;4364;52.426;9.424;2023-06-10T09:08:08;10.30;;;6.40;;
8652;SDS011;4364;52.426;9.424;2023-06-10T09:10:35;8.07;;;6.43;;
8652;SDS011;4364;52.426;9.424;2023-06-10T09:13:01;11.47;;;7.07;;
8652;SDS011;4364;52.426;9.424;2023-06-10T09:15:28;9.73;;;6.10;;
8652;SDS011;4364;52.426;9.424;2023-06-10T09:17:55;8.13;;;5.83;;
8652;SDS011;4364;52.426;9.424;2023-06-10T09:20:23;10.00;;;6.20;;
8652;SDS011;4364;52.426;9.424;2023-06-10T09:22:49;7.50;;;5.67;;
8652;SDS011;4364;52.426;9.424;2023-06-10T09:25:16;7.50;;;5.73;;
8652;SDS011;4364;52.426;9.424;2023-06-10T09:27:51;8.57;;;6.40;;
8652;SDS011;4364;52.426;9.424;2023-06-10T09:30:29;9.10;;;5.43;;
8652;SDS011;4364;52.426;9.424;2023-06-10T09:32:58;9.57;;;6.20;;
8652;SDS011;4364;52.426;9.424;2023-06-10T09:35:29;7.53;;;5.57;;
8652;SDS011;4364;52.426;9.424;2023-06-10T09:37:57;8.82;;;6.53;;
8652;SDS011;4364;52.426;9.424;2023-06-10T09:40:26;8.00;;;5.82;;
8652;SDS011;4364;52.426;9.424;2023-06-10T09:42:58;9.20;;;6.35;;
8652;SDS011;4364;52.426;9.424;2023-06-10T09:45:30;10.88;;;6.30;;
8652;SDS011;4364;52.426;9.424;2023-06-10T09:48:00;8.80;;;5.78;;
8652;SDS011;4364;52.426;9.424;2023-06-10T09:50:28;6.70;;;5.65;;
8652;SDS011;4364;52.426;9.424;2023-06-10T09:52:59;8.95;;;6.00;;
8652;SDS011;4364;52.426;9.424;2023-06-10T09:55:26;10.13;;;5.78;;
8652;SDS011;4364;52.426;9.424;2023-06-10T09:57:53;8.20;;;6.38;;
8652;SDS011;4364;52.426;9.424;2023-06-10T10:00:21;7.03;;;5.38;;
8652;SDS011;4364;52.426;9.424;2023-06-10T10:02:51;7.63;;;5.72;;
8652;SDS011;4364;52.426;9.424;2023-06-10T10:05:20;7.63;;;5.70;;
8652;SDS011;4364;52.426;9.424;2023-06-10T10:07:50;8.50;;;5.72;;
8652;SDS011;4364;52.426;9.424;2023-06-10T10:10:18;8.10;;;5.70;;
8652;SDS011;4364;52.426;9.424;2023-06-10T10:12:47;8.65;;;5.60;;
8652;SDS011;4364;52.426;9.424;2023-06-10T10:15:17;10.95;;;6.38;;
8652;SDS011;4364;52.426;9.424;2023-06-10T10:17:46;9.75;;;5.90;;
8652;SDS011;4364;52.426;9.424;2023-06-10T10:20:20;6.45;;;5.25;;
8652;SDS011;4364;52.426;9.424;2023-06-10T10:22:51;8.38;;;6.38;;
8652;SDS011;4364;52.426;9.424;2023-06-10T10:25:29;7.82;;;6.22;;
8652;SDS011;4364;52.426;9.424;2023-06-10T10:30:41;7.03;;;5.78;;
8652;SDS011;4364;52.426;9.424;2023-06-10T10:33:22;8.13;;;6.18;;
8652;SDS011;4364;52.426;9.424;2023-06-10T10:35:55;8.85;;;6.35;;
8652;SDS011;4364;52.426;9.424;2023-06-10T10:38:23;8.60;;;5.72;;
8652;SDS011;4364;52.426;9.424;2023-06-10T10:40:51;7.20;;;5.65;;
8652;SDS011;4364;52.426;9.424;2023-06-10T10:43:18;8.48;;;6.45;;
8652;SDS011;4364;52.426;9.424;2023-06-10T10:45:46;8.20;;;5.70;;
8652;SDS011;4364;52.426;9.424;2023-06-10T10:48:23;6.75;;;6.03;;
8652;SDS011;4364;52.426;9.424;2023-06-10T10:50:56;7.35;;;5.88;;
8652;SDS011;4364;52.426;9.424;2023-06-10T10:53:24;6.85;;;5.97;;
8652;SDS011;4364;52.426;9.424;2023-06-10T10:56:08;8.43;;;7.57;;
8652;SDS011;4364;52.426;9.424;2023-06-10T10:58:40;7.00;;;5.70;;
8652;SDS011;4364;52.426;9.424;2023-06-10T11:01:10;7.82;;;5.28;;
8652;SDS011;4364;52.426;9.424;2023-06-10T11:03:43;7.35;;;5.75;;
8652;SDS011;4364;52.426;9.424;2023-06-10T11:06:12;7.70;;;5.65;;
8652;SDS011;4364;52.426;9.424;2023-06-10T11:16:31;6.85;;;5.05;;
8652;SDS011;4364;52.426;9.424;2023-06-10T11:19:08;6.30;;;4.82;;
8652;SDS011;4364;52.426;9.424;2023-06-10T11:24:26;7.22;;;5.47;;
8652;SDS011;4364;52.426;9.424;2023-06-10T11:26:54;9.02;;;5.10;;
8652;SDS011;4364;52.426;9.424;2023-06-10T11:29:20;8.93;;;5.07;;
8652;SDS011;4364;52.426;9.424;2023-06-10T11:31:49;7.47;;;5.15;;
8652;SDS011;4364;52.426;9.424;2023-06-10T11:34:23;8.65;;;5.78;;
8652;SDS011;4364;52.426;9.424;2023-06-10T11:36:51;6.65;;;5.60;;
8652;SDS011;4364;52.426;9.424;2023-06-10T11:39:19;7.88;;;4.82;;
8652;SDS011;4364;52.426;9.424;2023-06-10T11:41:47;8.57;;;5.78;;
8652;SDS011;4364;52.426;9.424;2023-06-10T11:44:14;6.93;;;5.78;;
8652;SDS011;4364;52.426;9.424;2023-06-10T11:46:47;6.15;;;5.55;;
8652;SDS011;4364;52.426;9.424;2023-06-10T11:49:14;7.18;;;6.03;;
8652;SDS011;4364;52.426;9.424;2023-06-10T11:51:41;6.57;;;5.80;;
8652;SDS011;4364;52.426;9.424;2023-06-10T11:54:16;8.38;;;5.90;;
8652;SDS011;4364;52.426;9.424;2023-06-10T11:56:43;8.70;;;6.05;;
8652;SDS011;4364;52.426;9.424;2023-06-10T11:59:10;10.80;;;6.03;;
8652;SDS011;4364;52.426;9.424;2023-06-10T12:01:39;7.35;;;6.18;;
8652;SDS011;4364;52.426;9.424;2023-06-10T12:04:10;10.35;;;5.80;;
8652;SDS011;4364;52.426;9.424;2023-06-10T12:06:40;6.93;;;6.20;;
8652;SDS011;4364;52.426;9.424;2023-06-10T12:09:12;6.80;;;6.00;;
8652;SDS011;4364;52.426;9.424;2023-06-10T12:11:51;6.43;;;5.30;;
8652;SDS011;4364;52.426;9.424;2023-06-10T12:17:18;6.30;;;5.72;;
8652;SDS011;4364;52.426;9.424;2023-06-10T12:19:44;7.28;;;6.55;;
8652;SDS011;4364;52.426;9.424;2023-06-10T12:22:10;7.28;;;6.40;;
8652;SDS011;4364;52.426;9.424;2023-06-10T12:24:44;8.60;;;6.60;;
8652;SDS011;4364;52.426;9.424;2023-06-10T12:27:11;7.22;;;6.15;;
8652;SDS011;4364;52.426;9.424;2023-06-10T12:29:39;8.60;;;6.30;;
8652;SDS011;4364;52.426;9.424;2023-06-10T12:32:05;7.13;;;6.22;;
8652;SDS011;4364;52.426;9.424;2023-06-10T12:34:37;10.50;;;6.50;;
8652;SDS011;4364;52.426;9.424;2023-06-10T12:37:05;8.45;;;6.80;;
8652;SDS011;4364;52.426;9.424;2023-06-10T12:39:39;8.40;;;6.50;;
8652;SDS011;4364;52.426;9.424;2023-06-10T12:42:10;8.38;;;6.55;;
8652;SDS011;4364;52.426;9.424;2023-06-10T12:44:39;7.88;;;6.72;;
8652;SDS011;4364;52.426;9.424;2023-06-10T12:47:07;7.63;;;6.80;;
8652;SDS011;4364;52.426;9.424;2023-06-10T12:49:36;8.48;;;6.93;;
8652;SDS011;4364;52.426;9.424;2023-06-10T12:52:03;8.57;;;6.63;;
8652;SDS011;4364;52.426;9.424;2023-06-10T12:54:30;9.73;;;7.05;;
8652;SDS011;4364;52.426;9.424;2023-06-10T12:56:57;7.88;;;7.05;;
8652;SDS011;4364;52.426;9.424;2023-06-10T12:59:24;7.88;;;7.00;;
8652;SDS011;4364;52.426;9.424;2023-06-10T13:01:51;9.95;;;7.20;;
8652;SDS011;4364;52.426;9.424;2023-06-10T13:04:18;9.13;;;7.57;;
8652;SDS011;4364;52.426;9.424;2023-06-10T13:06:46;8.25;;;7.45;;
8652;SDS011;4364;52.426;9.424;2023-06-10T13:09:13;12.93;;;8.60;;
8652;SDS011;4364;52.426;9.424;2023-06-10T13:11:40;9.15;;;7.78;;
8652;SDS011;4364;52.426;9.424;2023-06-10T13:14:07;7.45;;;6.72;;
8652;SDS011;4364;52.426;9.424;2023-06-10T13:16:33;7.30;;;6.68;;
8652;SDS011;4364;52.426;9.424;2023-06-10T13:19:00;9.43;;;7.82;;
8652;SDS011;4364;52.426;9.424;2023-06-10T13:21:28;11.40;;;7.85;;
8652;SDS011;4364;52.426;9.424;2023-06-10T13:23:55;9.23;;;7.72;;
8652;SDS011;4364;52.426;9.424;2023-06-10T13:26:21;8.50;;;7.60;;
8652;SDS011;4364;52.426;9.424;2023-06-10T13:28:49;8.90;;;7.80;;
8652;SDS011;4364;52.426;9.424;2023-06-10T13:31:15;9.75;;;7.80;;
8652;SDS011;4364;52.426;9.424;2023-06-10T13:33:42;10.13;;;7.68;;
8652;SDS011;4364;52.426;9.424;2023-06-10T13:36:09;9.40;;;7.97;;
8652;SDS011;4364;52.426;9.424;2023-06-10T13:38:36;8.40;;;7.65;;
8652;SDS011;4364;52.426;9.424;2023-06-10T13:41:03;9.43;;;7.70;;
8652;SDS011;4364;52.426;9.424;2023-06-10T13:43:30;9.20;;;8.30;;
8652;SDS011;4364;52.426;9.424;2023-06-10T13:45:56;9.00;;;8.00;;
8652;SDS011;4364;52.426;9.424;2023-06-10T13:48:23;10.40;;;7.70;;
8652;SDS011;4364;52.426;9.424;2023-06-10T13:50:50;10.13;;;8.60;;
8652;SDS011;4364;52.426;9.424;2023-06-10T13:53:17;9.65;;;8.18;;
8652;SDS011;4364;52.426;9.424;2023-06-10T13:55:43;9.10;;;8.20;;
8652;SDS011;4364;52.426;9.424;2023-06-10T13:58:10;9.75;;;8.50;;
8652;SDS011;4364;52.426;9.424;2023-06-10T14:00:36;9.63;;;8.23;;
8652;SDS011;4364;52.426;9.424;2023-06-10T14:03:03;13.02;;;8.48;;
8652;SDS011;4364;52.426;9.424;2023-06-10T14:05:29;9.55;;;8.52;;
8652;SDS011;4364;52.426;9.424;2023-06-10T14:07:57;9.30;;;8.25;;
8652;SDS011;4364;52.426;9.424;2023-06-10T14:10:24;9.38;;;8.48;;
8652;SDS011;4364;52.426;9.424;2023-06-10T14:12:51;9.10;;;8.15;;
8652;SDS011;4364;52.426;9.424;2023-06-10T14:15:17;10.63;;;7.43;;
8652;SDS011;4364;52.426;9.424;2023-06-10T14:17:44;8.90;;;8.00;;
8652;SDS011;4364;52.426;9.424;2023-06-10T14:20:11;9.45;;;8.02;;
8652;SDS011;4364;52.426;9.424;2023-06-10T14:22:38;9.43;;;8.05;;
8652;SDS011;4364;52.426;9.424;2023-06-10T14:25:04;10.10;;;8.60;;
8652;SDS011;4364;52.426;9.424;2023-06-10T14:27:32;10.90;;;8.25;;
8652;SDS011;4364;52.426;9.424;2023-06-10T14:29:59;9.60;;;7.72;;
8652;SDS011;4364;52.426;9.424;2023-06-10T14:32:26;9.07;;;8.13;;
8652;SDS011;4364;52.426;9.424;2023-06-10T14:34:53;9.30;;;8.07;;
8652;SDS011;4364;52.426;9.424;2023-06-10T14:37:19;9.45;;;8.27;;
8652;SDS011;4364;52.426;9.424;2023-06-10T14:39:46;9.77;;;7.90;;
8652;SDS011;4364;52.426;9.424;2023-06-10T14:42:12;9.57;;;8.07;;
8652;SDS011;4364;52.426;9.424;2023-06-10T14:44:39;10.00;;;8.80;;
8652;SDS011;4364;52.426;9.424;2023-06-10T14:47:05;9.23;;;8.32;;
8652;SDS011;4364;52.426;9.424;2023-06-10T14:49:32;9.18;;;8.38;;
8652;SDS011;4364;52.426;9.424;2023-06-10T14:51:58;8.85;;;7.97;;
8652;SDS011;4364;52.426;9.424;2023-06-10T14:54:26;9.32;;;7.88;;
8652;SDS011;4364;52.426;9.424;2023-06-10T14:56:54;9.50;;;8.35;;
8652;SDS011;4364;52.426;9.424;2023-06-10T14:59:20;8.70;;;7.90;;
8652;SDS011;4364;52.426;9.424;2023-06-10T15:01:47;8.65;;;7.72;;
8652;SDS011;4364;52.426;9.424;2023-06-10T15:04:14;10.45;;;8.10;;
8652;SDS011;4364;52.426;9.424;2023-06-10T15:06:40;9.25;;;8.35;;
8652;SDS011;4364;52.426;9.424;2023-06-10T15:09:08;9.27;;;8.00;;
8652;SDS011;4364;52.426;9.424;2023-06-10T15:11:35;9.45;;;8.10;;
8652;SDS011;4364;52.426;9.424;2023-06-10T15:14:04;11.05;;;8.48;;
8652;SDS011;4364;52.426;9.424;2023-06-10T15:16:30;10.48;;;8.20;;
8652;SDS011;4364;52.426;9.424;2023-06-10T15:18:57;9.95;;;8.32;;
8652;SDS011;4364;52.426;9.424;2023-06-10T15:21:24;9.35;;;8.00;;
8652;SDS011;4364;52.426;9.424;2023-06-10T15:23:50;11.40;;;8.35;;
8652;SDS011;4364;52.426;9.424;2023-06-10T15:26:18;9.73;;;8.73;;
8652;SDS011;4364;52.426;9.424;2023-06-10T15:28:44;8.70;;;7.88;;
8652;SDS011;4364;52.426;9.424;2023-06-10T15:31:11;11.07;;;8.32;;
8652;SDS011;4364;52.426;9.424;2023-06-10T15:33:37;9.18;;;8.15;;